Irvington, New Jersey
Current Conditions -  °F | °C
As of 1:51 AM on Sunday 26 Oct 2014 (Local Time) from KEWR Reporting Station
Overcast Overcast  
Wind Chill: 16°   Ceiling: 6500
Heat Index: 16°   Visibility: 10mi
Dew Point:   Wind: 12mph
Humidity: 58%   Direction: 270°W
Pressure: 29.56"   Gusts: NA
Location:  40.73°N, 74.23°W
Report Text: KEWR 260551Z 27010KT 10SM FEW049 BKN065 OVC110 16/08 A2956 RMK AO2 WSHFT 0445 SLP011 T01610078 10178 20150 58011
Loading
Personal Weather Stations






























Interactive Weather Map
Tropical Storm Tracking
New forecast layout! Learn more

10-Day Weather Forecast

Advertisements
Track Severe Weather on mobile